Time;durP1;ratioP1;P1;durP2;ratioP2;P2;SDS_P1;SDS_P2;PMS_P1;PMS_P2;Temp;Humidity;BMP_temperature;BMP_pressure;BME280_temperature;BME280_humidity;BME280_pressure;Samples;Min_cycle;Max_cycle;Signal;HPM_P1;HPM_P2
2023/12/04 00:01:21;;;;;;;;;23.75;22.25;;;;;3.63;47.97;100582.44;5057103;28;45338;-64
2023/12/04 00:03:47;;;;;;;;;22.50;20.00;;;;;3.55;47.99;100572.75;5052827;28;45452;-66
2023/12/04 00:06:13;;;;;;;;;26.50;19.50;;;;;3.66;47.70;100574.78;5047806;28;45353;-66
2023/12/04 00:08:39;;;;;;;;;22.25;18.75;;;;;3.67;48.38;100577.41;5056298;28;45207;-66
2023/12/04 00:11:06;;;;;;;;;23.00;17.00;;;;;3.69;48.26;100562.78;5056618;28;45334;-66
2023/12/04 00:13:31;;;;;;;;;22.50;19.00;;;;;3.75;48.77;100556.88;5055279;28;45406;-63
2023/12/04 00:15:57;;;;;;;;;23.50;19.00;;;;;3.75;47.96;100547.41;5049857;28;45535;-63
2023/12/04 00:18:22;;;;;;;;;26.75;21.50;;;;;3.74;48.17;100524.06;5058507;28;45919;-66
2023/12/04 00:20:48;;;;;;;;;30.25;21.50;;;;;3.81;48.76;100547.56;5059061;28;45379;-63
2023/12/04 00:23:13;;;;;;;;;27.75;21.25;;;;;3.83;48.29;100545.03;5058954;28;45409;-65
2023/12/04 00:25:39;;;;;;;;;26.50;21.25;;;;;3.74;48.52;100521.47;5059005;28;45429;-65
2023/12/04 00:28:05;;;;;;;;;21.00;18.75;;;;;3.74;48.75;100514.56;5056896;28;45559;-63
2023/12/04 00:30:30;;;;;;;;;24.50;20.00;;;;;3.66;48.53;100515.22;5058644;28;45453;-64
2023/12/04 00:32:56;;;;;;;;;24.00;21.25;;;;;3.73;49.00;100536.13;5059905;28;45622;-62
2023/12/04 00:35:21;;;;;;;;;19.50;19.50;;;;;3.59;48.46;100509.00;5056534;28;45501;-63
2023/12/04 00:37:47;;;;;;;;;21.75;17.25;;;;;3.71;48.95;100523.97;5060032;28;46105;-63
2023/12/04 00:40:12;;;;;;;;;19.50;15.25;;;;;3.57;49.03;100497.72;5058282;28;45488;-62
2023/12/04 00:42:38;;;;;;;;;22.00;18.75;;;;;3.71;49.07;100514.50;5053112;28;45456;-65
2023/12/04 00:45:05;;;;;;;;;20.25;16.75;;;;;3.65;49.04;100498.78;5058652;28;45631;-63
2023/12/04 00:47:34;;;;;;;;;25.00;19.00;;;;;3.51;49.51;100458.69;5074823;27;47430;-64
2023/12/04 00:49:59;;;;;;;;;21.75;16.75;;;;;3.76;49.85;100491.28;5059859;28;45582;-62
2023/12/04 00:52:26;;;;;;;;;23.50;18.25;;;;;3.34;49.35;100406.47;5056509;28;45551;-62
2023/12/04 00:54:51;;;;;;;;;24.75;19.25;;;;;3.70;49.64;100463.53;5046756;28;45529;-65
2023/12/04 00:57:17;;;;;;;;;22.50;18.00;;;;;3.72;49.35;100467.00;5057782;28;45721;-66
2023/12/04 00:59:42;;;;;;;;;22.00;16.75;;;;;3.75;49.89;100468.81;5058334;28;45352;-63
2023/12/04 01:02:08;;;;;;;;;16.75;16.25;;;;;3.65;49.20;100440.91;5058666;28;45523;-62
2023/12/04 01:04:37;;;;;;;;;22.25;18.00;;;;;3.62;49.47;100426.19;5058793;28;45459;-63
2023/12/04 01:07:03;;;;;;;;;22.75;16.75;;;;;3.75;50.09;100432.53;5058205;28;45453;-63
2023/12/04 01:09:34;;;;;;;;;20.75;16.75;;;;;3.54;49.91;100397.50;5058369;28;45686;-65
2023/12/04 01:12:00;;;;;;;;;20.00;18.50;;;;;3.85;49.62;100436.25;5058094;28;45259;-62
2023/12/04 01:14:26;;;;;;;;;22.25;15.25;;;;;3.88;49.55;100428.53;5058666;28;45299;-65
2023/12/04 01:16:52;;;;;;;;;23.25;16.50;;;;;3.85;49.34;100411.22;5057788;28;45736;-64
2023/12/04 01:19:17;;;;;;;;;20.50;18.25;;;;;3.90;49.73;100413.91;5058141;28;45379;-63
2023/12/04 01:21:43;;;;;;;;;18.50;13.50;;;;;3.81;49.44;100388.66;5047268;28;45358;-63
2023/12/04 01:24:08;;;;;;;;;19.25;15.75;;;;;3.96;49.16;100404.59;5047308;28;45388;-66
2023/12/04 01:26:34;;;;;;;;;17.75;17.75;;;;;3.98;49.89;100404.59;5057722;28;45414;-65
2023/12/04 01:28:59;;;;;;;;;18.00;16.75;;;;;4.01;49.98;100390.00;5049536;28;45363;-65
2023/12/04 01:31:25;;;;;;;;;20.25;14.75;;;;;4.07;49.96;100385.81;5050695;28;45511;-66
2023/12/04 01:33:51;;;;;;;;;18.00;14.00;;;;;4.07;49.35;100373.72;5047752;28;45412;-62
2023/12/04 01:36:16;;;;;;;;;19.25;14.00;;;;;4.15;49.70;100373.88;5051770;28;46434;-64
2023/12/04 01:38:42;;;;;;;;;17.75;16.50;;;;;4.13;49.46;100354.81;5051694;28;45544;-63
2023/12/04 01:41:07;;;;;;;;;17.50;16.00;;;;;4.23;48.85;100378.41;5050047;28;45497;-64
2023/12/04 01:43:34;;;;;;;;;16.50;15.00;;;;;4.22;49.39;100375.75;5051840;28;45355;-63
2023/12/04 01:46:01;;;;;;;;;29.50;19.25;;;;;4.16;49.48;100379.09;5046777;28;45533;-64
2023/12/04 01:48:28;;;;;;;;;22.00;18.75;;;;;4.10;49.25;100383.28;5051783;28;45395;-65
2023/12/04 01:50:53;;;;;;;;;16.75;16.25;;;;;4.17;49.49;100382.56;5050226;28;45565;-63
2023/12/04 01:53:19;;;;;;;;;16.25;15.50;;;;;4.07;49.51;100352.09;5046138;28;45595;-62
2023/12/04 01:55:46;;;;;;;;;21.75;16.75;;;;;4.17;48.89;100369.59;5052614;28;46047;-63
2023/12/04 01:58:12;;;;;;;;;16.00;14.00;;;;;4.10;49.78;100367.72;5054842;28;45599;-64
2023/12/04 02:00:38;;;;;;;;;19.25;17.75;;;;;4.03;49.36;100333.91;5053164;28;45410;-63
2023/12/04 02:03:03;;;;;;;;;20.75;16.50;;;;;4.15;49.63;100355.72;5052636;28;45478;-63
2023/12/04 02:05:31;;;;;;;;;17.50;15.00;;;;;4.13;49.80;100379.03;5043996;28;46513;-63
2023/12/04 02:07:56;;;;;;;;;21.00;17.00;;;;;4.05;49.73;100385.75;5053697;28;45429;-65
2023/12/04 02:10:25;;;;;;;;;15.50;15.50;;;;;3.98;50.04;100373.50;5056279;28;45533;-63
2023/12/04 02:12:54;;;;;;;;;18.00;16.00;;;;;3.99;50.33;100370.09;5055291;28;45400;-67
2023/12/04 02:15:20;;;;;;;;;20.00;16.00;;;;;4.00;50.39;100367.50;5049068;28;46085;-63
2023/12/04 02:17:49;;;;;;;;;19.25;16.25;;;;;3.73;50.27;100328.91;5054039;28;45498;-63
2023/12/04 02:20:14;;;;;;;;;21.50;16.50;;;;;4.04;50.01;100358.09;5041553;27;45532;-63
2023/12/04 02:22:40;;;;;;;;;16.00;14.50;;;;;3.96;50.38;100336.31;5046928;28;45803;-64
2023/12/04 02:25:08;;;;;;;;;24.75;16.25;;;;;4.01;50.33;100358.00;5044929;28;46090;-65
2023/12/04 02:27:40;;;;;;;;;18.00;18.00;;;;;3.98;50.74;100369.19;5047096;28;45394;-62
2023/12/04 02:30:11;;;;;;;;;23.00;17.25;;;;;3.97;50.81;100366.59;5047772;28;45520;-63
2023/12/04 02:32:42;;;;;;;;;21.75;15.25;;;;;3.79;50.59;100339.38;5044830;28;45421;-64
2023/12/04 02:35:09;;;;;;;;;16.75;14.00;;;;;3.97;51.49;100358.81;5053406;28;45308;-64
2023/12/04 02:37:35;;;;;;;;;23.50;15.25;;;;;3.94;51.25;100358.72;5057044;28;45316;-66
2023/12/04 02:40:02;;;;;;;;;19.00;15.50;;;;;3.84;51.19;100344.69;5056920;28;45357;-67
2023/12/04 02:42:29;;;;;;;;;20.75;17.00;;;;;3.82;50.96;100341.22;5055900;28;45477;-64
2023/12/04 02:44:55;;;;;;;;;18.75;16.00;;;;;4.01;51.40;100369.28;5057186;28;46572;-64
2023/12/04 02:47:20;;;;;;;;;17.00;15.50;;;;;3.76;50.91;100325.50;5057279;28;45469;-63
2023/12/04 02:49:46;;;;;;;;;16.00;15.50;;;;;3.94;50.82;100367.38;5057224;28;46835;-63
2023/12/04 02:52:12;;;;;;;;;17.00;15.25;;;;;3.64;51.28;100305.38;5057195;28;45438;-64
2023/12/04 02:54:38;;;;;;;;;19.50;16.50;;;;;3.77;51.45;100316.88;5058587;28;47956;-64
2023/12/04 02:57:03;;;;;;;;;14.75;14.75;;;;;3.98;51.29;100353.63;5058180;28;45503;-63
2023/12/04 02:59:29;;;;;;;;;20.25;15.00;;;;;3.81;51.47;100321.31;5060407;28;45648;-64
2023/12/04 03:01:54;;;;;;;;;15.75;14.50;;;;;4.00;51.67;100331.22;5059744;28;45485;-64
2023/12/04 03:04:20;;;;;;;;;16.00;14.00;;;;;3.99;51.81;100326.03;5057056;28;46846;-63
2023/12/04 03:06:46;;;;;;;;;17.25;13.25;;;;;3.94;51.53;100302.63;5048073;28;45543;-65
2023/12/04 03:09:15;;;;;;;;;23.50;16.00;;;;;3.82;51.11;100285.06;5050943;28;45668;-62
2023/12/04 03:11:41;;;;;;;;;17.25;15.75;;;;;4.03;51.12;100315.78;5056725;27;45429;-63
2023/12/04 03:14:07;;;;;;;;;16.25;15.00;;;;;3.70;50.87;100235.59;5056023;28;46325;-63
2023/12/04 03:16:33;;;;;;;;;14.25;14.25;;;;;3.99;51.24;100276.81;5057404;28;45448;-64
2023/12/04 03:18:59;;;;;;;;;18.50;15.25;;;;;4.12;51.63;100283.97;5057885;28;45394;-66
2023/12/04 03:21:26;;;;;;;;;17.75;13.75;;;;;4.13;51.15;100285.75;5058153;28;45534;-64
2023/12/04 03:23:52;;;;;;;;;22.75;15.50;;;;;3.95;50.98;100242.16;5056923;28;45387;-64
2023/12/04 03:26:18;;;;;;;;;18.75;13.50;;;;;3.94;51.21;100231.75;5056475;28;45452;-64
2023/12/04 03:28:43;;;;;;;;;22.25;15.75;;;;;4.21;51.72;100272.94;5058342;28;45569;-64
2023/12/04 03:31:09;;;;;;;;;16.00;14.50;;;;;3.99;51.25;100243.97;5058752;28;45559;-63
2023/12/04 03:33:35;;;;;;;;;17.75;14.00;;;;;4.18;51.44;100246.97;5055154;28;47711;-64
2023/12/04 03:36:00;;;;;;;;;20.75;17.00;;;;;4.33;50.98;100287.84;5056545;28;45659;-66
2023/12/04 03:38:26;;;;;;;;;15.00;13.00;;;;;4.30;51.14;100267.94;5057252;28;45314;-66
2023/12/04 03:40:53;;;;;;;;;15.25;13.00;;;;;4.19;51.64;100246.09;5057206;27;45425;-66
2023/12/04 03:43:19;;;;;;;;;18.25;15.25;;;;;4.16;51.96;100231.34;5056184;28;46079;-65
2023/12/04 03:45:45;;;;;;;;;19.00;15.50;;;;;4.05;51.65;100217.31;5056609;28;45434;-64
2023/12/04 03:48:11;;;;;;;;;19.75;15.50;;;;;4.35;51.46;100266.31;5056123;28;45314;-65
2023/12/04 03:50:37;;;;;;;;;19.00;16.75;;;;;4.36;51.80;100255.06;5056215;28;45334;-67
2023/12/04 03:53:03;;;;;;;;;13.25;11.50;;;;;4.13;51.55;100223.53;5061155;28;46263;-67
2023/12/04 03:55:28;;;;;;;;;18.50;15.25;;;;;4.33;51.60;100256.75;5059611;28;45527;-64
2023/12/04 03:57:54;;;;;;;;;16.50;12.25;;;;;4.34;51.61;100264.56;5059606;28;45432;-64
2023/12/04 04:00:20;;;;;;;;;15.00;14.75;;;;;4.35;51.72;100255.94;5060475;28;45620;-63
2023/12/04 04:02:46;;;;;;;;;15.75;14.25;;;;;4.23;52.64;100230.63;5059615;28;46053;-64
2023/12/04 04:05:12;;;;;;;;;13.75;13.75;;;;;4.16;52.66;100235.69;5059425;28;45383;-62
2023/12/04 04:07:37;;;;;;;;;15.00;13.00;;;;;3.93;53.45;100206.69;5044859;28;45401;-64
2023/12/04 04:10:04;;;;;;;;;12.00;10.50;;;;;4.10;53.98;100222.59;5060717;28;45516;-62
2023/12/04 04:12:31;;;;;;;;;13.00;12.75;;;;;4.15;55.22;100234.81;5058996;28;46584;-66
2023/12/04 04:14:57;;;;;;;;;18.00;11.25;;;;;3.94;55.68;100188.59;5059265;28;45368;-64
2023/12/04 04:17:26;;;;;;;;;13.25;12.25;;;;;4.36;55.69;100249.88;5059362;28;45406;-63
2023/12/04 04:19:52;;;;;;;;;17.00;12.75;;;;;4.41;56.39;100247.38;5059299;28;45528;-63
2023/12/04 04:22:19;;;;;;;;;13.25;12.00;;;;;4.28;57.03;100222.09;5059055;28;46335;-63
2023/12/04 04:24:46;;;;;;;;;13.50;12.00;;;;;4.41;57.88;100229.22;5058782;28;45528;-63
2023/12/04 04:27:11;;;;;;;;;14.50;11.00;;;;;4.17;57.95;100190.75;5057580;28;45550;-62
2023/12/04 04:29:37;;;;;;;;;14.25;11.25;;;;;4.30;58.35;100212.63;5058313;28;45503;-62
2023/12/04 04:32:03;;;;;;;;;18.25;13.75;;;;;4.39;59.47;100221.44;5060386;28;45480;-63
2023/12/04 04:34:28;;;;;;;;;14.25;13.00;;;;;4.30;60.01;100221.25;5059131;28;45417;-64
2023/12/04 04:36:53;;;;;;;;;16.00;13.00;;;;;4.24;60.42;100211.63;5059321;28;45362;-63
2023/12/04 04:39:19;;;;;;;;;13.75;11.25;;;;;4.24;60.36;100203.84;5059657;27;45446;-62
2023/12/04 04:41:45;;;;;;;;;14.75;12.50;;;;;4.09;62.46;100184.56;5059394;28;46629;-64
2023/12/04 04:44:10;;;;;;;;;11.75;11.00;;;;;4.19;62.10;100194.25;5059473;28;45423;-64
2023/12/04 04:46:36;;;;;;;;;13.75;11.75;;;;;4.19;62.83;100176.09;5059771;28;45440;-63
2023/12/04 04:49:02;;;;;;;;;18.00;11.00;;;;;4.04;63.29;100156.84;5058797;28;45440;-62
2023/12/04 04:51:29;;;;;;;;;14.00;13.75;;;;;4.02;63.92;100153.34;5057446;28;45458;-63
2023/12/04 04:53:55;;;;;;;;;16.25;10.25;;;;;4.00;64.80;100159.34;5058188;28;45338;-64
2023/12/04 04:56:20;;;;;;;;;14.50;10.75;;;;;3.98;63.99;100150.66;5059011;28;45311;-65
2023/12/04 04:58:46;;;;;;;;;11.50;11.00;;;;;3.96;65.78;100162.69;5059927;28;45523;-62
2023/12/04 05:01:11;;;;;;;;;15.25;13.50;;;;;3.92;66.33;100153.16;5059201;28;46163;-63
2023/12/04 05:03:37;;;;;;;;;13.75;12.50;;;;;3.96;65.94;100149.75;5057409;28;45362;-63
2023/12/04 05:06:03;;;;;;;;;14.75;11.75;;;;;3.91;66.91;100149.66;5053875;28;45331;-65
2023/12/04 05:08:29;;;;;;;;;11.75;11.00;;;;;3.92;67.37;100142.78;5047492;28;45489;-62
2023/12/04 05:10:54;;;;;;;;;15.25;11.75;;;;;3.87;68.30;100140.09;5058386;28;45564;-63
2023/12/04 05:13:20;;;;;;;;;14.00;12.00;;;;;3.90;68.08;100127.19;5059335;28;45393;-63
2023/12/04 05:15:45;;;;;;;;;12.50;10.00;;;;;3.89;68.25;100127.16;5058537;28;45552;-63
2023/12/04 05:18:11;;;;;;;;;13.50;12.25;;;;;3.85;68.61;100113.28;5058273;28;45382;-63
2023/12/04 05:20:37;;;;;;;;;18.00;12.75;;;;;3.90;69.31;100118.56;5058114;28;45351;-63
2023/12/04 05:23:02;;;;;;;;;14.50;12.75;;;;;3.86;69.86;100109.84;5057799;28;45365;-64
2023/12/04 05:25:28;;;;;;;;;15.50;11.00;;;;;3.77;70.16;100095.00;5058389;28;45512;-64
2023/12/04 05:27:53;;;;;;;;;14.25;11.75;;;;;3.85;70.29;100102.94;5051324;28;45806;-64
2023/12/04 05:30:19;;;;;;;;;15.75;13.50;;;;;3.53;70.51;100050.50;5058059;28;45495;-66
2023/12/04 05:32:44;;;;;;;;;16.25;13.25;;;;;3.83;70.64;100099.44;5057952;28;45452;-64
2023/12/04 05:35:10;;;;;;;;;18.25;11.25;;;;;3.76;71.95;100072.53;5057484;28;45373;-63
2023/12/04 05:37:35;;;;;;;;;15.75;13.75;;;;;3.71;72.71;100063.81;5058084;28;45389;-63
2023/12/04 05:40:01;;;;;;;;;21.00;14.00;;;;;3.73;72.38;100069.88;5057615;28;45435;-63
2023/12/04 05:42:30;;;;;;;;;19.50;15.50;;;;;3.61;72.40;100028.22;5057918;28;45444;-63
2023/12/04 05:44:57;;;;;;;;;17.00;14.25;;;;;3.70;72.89;100050.81;5057679;28;45350;-63
2023/12/04 05:47:22;;;;;;;;;18.50;15.25;;;;;3.73;72.65;100050.91;5058327;28;45417;-62
2023/12/04 05:49:52;;;;;;;;;17.00;15.00;;;;;3.44;73.66;100025.31;5058372;28;46556;-62
2023/12/04 05:52:17;;;;;;;;;20.00;15.50;;;;;3.60;74.05;100049.78;5057777;28;45433;-63
2023/12/04 05:54:43;;;;;;;;;13.00;12.75;;;;;3.45;73.46;100026.19;5059133;28;45637;-64
2023/12/04 05:57:08;;;;;;;;;19.50;14.00;;;;;3.49;74.97;100031.44;5059384;28;45338;-63
2023/12/04 05:59:34;;;;;;;;;18.00;15.75;;;;;3.44;74.59;100035.69;5058318;28;45383;-64
2023/12/04 06:02:00;;;;;;;;;17.50;17.50;;;;;3.44;75.74;100019.25;5057916;28;45333;-63
2023/12/04 06:04:26;;;;;;;;;19.25;16.00;;;;;3.29;74.85;99984.44;5060014;28;45333;-65
2023/12/04 06:06:52;;;;;;;;;19.25;15.00;;;;;3.43;76.32;100010.59;5048952;28;45448;-65
2023/12/04 06:09:17;;;;;;;;;20.75;15.25;;;;;3.43;75.56;99991.63;5054304;28;45676;-63
2023/12/04 06:11:43;;;;;;;;;15.50;13.00;;;;;3.38;75.81;99999.31;5057532;28;45401;-64
2023/12/04 06:14:09;;;;;;;;;17.25;14.00;;;;;3.38;76.70;99989.81;5057324;28;45414;-64
2023/12/04 06:16:34;;;;;;;;;16.75;13.50;;;;;3.36;76.38;99975.09;5057844;28;45264;-64
2023/12/04 06:19:00;;;;;;;;;14.00;12.50;;;;;3.35;76.38;99970.78;5057221;28;45396;-63
2023/12/04 06:21:25;;;;;;;;;14.75;11.00;;;;;3.42;77.34;99966.56;5057330;28;45353;-64
2023/12/04 06:23:51;;;;;;;;;14.00;11.50;;;;;3.46;77.16;99977.00;5057268;28;45479;-63
2023/12/04 06:26:17;;;;;;;;;14.75;13.50;;;;;3.48;77.57;99967.56;5057846;28;45389;-66
2023/12/04 06:28:44;;;;;;;;;12.75;11.00;;;;;3.44;78.81;99957.13;5051338;28;46210;-63
2023/12/04 06:31:11;;;;;;;;;11.50;11.00;;;;;3.39;78.64;99957.91;5058476;28;45543;-66
2023/12/04 06:33:37;;;;;;;;;13.00;10.50;;;;;3.55;78.24;99977.19;5057141;28;45442;-63
2023/12/04 06:36:04;;;;;;;;;14.25;12.00;;;;;3.50;79.30;99957.25;5054044;28;45416;-64
2023/12/04 06:38:33;;;;;;;;;13.75;11.75;;;;;3.53;78.77;99952.97;5056627;28;45493;-63
2023/12/04 06:40:59;;;;;;;;;11.50;10.75;;;;;3.37;80.21;99923.38;5058398;28;45437;-65
2023/12/04 06:43:25;;;;;;;;;14.50;11.00;;;;;3.61;80.21;99963.50;5056959;28;45491;-64
2023/12/04 06:45:51;;;;;;;;;13.75;9.50;;;;;3.50;81.28;99934.81;5057703;28;45360;-63
2023/12/04 06:48:17;;;;;;;;;8.50;7.50;;;;;3.63;81.41;99950.53;5056345;28;47710;-63
2023/12/04 06:50:43;;;;;;;;;14.75;10.50;;;;;3.57;81.51;99948.72;5058198;28;45472;-64
2023/12/04 06:53:09;;;;;;;;;14.00;12.00;;;;;3.52;81.94;99937.44;5056896;28;46692;-64
2023/12/04 06:55:34;;;;;;;;;11.50;10.00;;;;;3.61;82.23;99941.03;5055474;28;45528;-64
2023/12/04 06:58:00;;;;;;;;;14.75;12.50;;;;;3.55;82.27;99930.56;5056561;28;45383;-65
2023/12/04 07:00:25;;;;;;;;;13.25;10.75;;;;;3.57;82.86;99920.25;5055696;28;45592;-65
2023/12/04 07:02:51;;;;;;;;;11.25;10.00;;;;;3.63;82.81;99928.13;5056663;28;45327;-65
2023/12/04 07:05:18;;;;;;;;;9.75;8.75;;;;;3.64;83.07;99922.09;5056697;28;45464;-65
2023/12/04 07:07:44;;;;;;;;;14.50;12.75;;;;;3.63;83.77;99917.78;5041391;28;46271;-63
2023/12/04 07:10:14;;;;;;;;;11.50;9.25;;;;;3.68;83.95;99928.19;5057558;28;45862;-64
2023/12/04 07:12:43;;;;;;;;;16.25;12.50;;;;;3.62;84.64;99908.25;5057382;28;45479;-65
2023/12/04 07:15:11;;;;;;;;;11.00;11.00;;;;;3.58;83.64;99894.41;5055660;28;45429;-64
2023/12/04 07:17:37;;;;;;;;;13.00;11.25;;;;;3.71;83.79;99915.31;5056985;28;46031;-64
2023/12/04 07:20:06;;;;;;;;;14.75;11.75;;;;;3.58;84.78;99893.50;5057148;28;45447;-64
2023/12/04 07:22:32;;;;;;;;;13.00;11.50;;;;;3.76;85.21;99909.34;5057023;28;45427;-66
2023/12/04 07:24:58;;;;;;;;;15.75;12.50;;;;;3.65;84.86;99894.47;5056835;28;45676;-68
2023/12/04 07:27:24;;;;;;;;;12.75;10.75;;;;;3.81;84.78;99907.69;5060083;28;45430;-65
2023/12/04 07:29:50;;;;;;;;;10.75;10.00;;;;;3.64;85.62;99888.44;5060008;28;45795;-63
2023/12/04 07:32:15;;;;;;;;;16.75;13.00;;;;;3.81;85.98;99910.28;5063137;28;45401;-63
2023/12/04 07:34:41;;;;;;;;;14.75;9.00;;;;;3.82;84.94;99895.66;5063343;28;45720;-64
2023/12/04 07:37:07;;;;;;;;;13.00;10.25;;;;;3.86;85.36;99897.41;5062998;28;46468;-65
2023/12/04 07:39:32;;;;;;;;;10.00;9.00;;;;;3.81;85.23;99901.66;5062743;28;45443;-65
2023/12/04 07:41:58;;;;;;;;;13.50;10.50;;;;;3.87;85.73;99896.59;5061939;28;45357;-64
2023/12/04 07:44:24;;;;;;;;;11.75;10.00;;;;;3.80;86.07;99874.03;5062966;28;45962;-65
2023/12/04 07:46:49;;;;;;;;;11.00;8.75;;;;;3.90;85.84;99885.38;5062535;28;45336;-63
2023/12/04 07:49:15;;;;;;;;;13.00;10.75;;;;;3.98;85.46;99879.47;5062829;28;45436;-64
2023/12/04 07:51:40;;;;;;;;;13.00;11.00;;;;;3.99;85.39;99881.22;5062619;28;45464;-64
2023/12/04 07:54:06;;;;;;;;;16.50;11.50;;;;;4.03;85.05;99888.19;5062935;28;45353;-63
2023/12/04 07:56:32;;;;;;;;;12.50;12.25;;;;;4.02;85.41;99894.22;5062938;28;45421;-65
2023/12/04 07:58:57;;;;;;;;;13.50;11.25;;;;;4.02;85.68;99881.25;5063811;28;45319;-65
2023/12/04 08:01:24;;;;;;;;;14.75;11.25;;;;;4.02;86.39;99875.22;5063977;28;45446;-65
2023/12/04 08:03:49;;;;;;;;;14.75;10.75;;;;;4.04;86.21;99855.38;5063842;28;45589;-65
2023/12/04 08:06:18;;;;;;;;;12.25;10.50;;;;;4.08;85.75;99854.56;5057404;28;46051;-65
2023/12/04 08:08:43;;;;;;;;;12.25;10.75;;;;;4.15;86.51;99865.88;5053609;28;45568;-66
2023/12/04 08:11:10;;;;;;;;;14.75;10.75;;;;;4.16;86.46;99852.09;5062511;28;45279;-65
2023/12/04 08:13:35;;;;;;;;;10.25;10.25;;;;;4.13;87.00;99844.25;5062643;28;45334;-64
2023/12/04 08:16:01;;;;;;;;;14.00;11.25;;;;;4.15;86.15;99851.22;5062363;28;45840;-64
2023/12/04 08:18:27;;;;;;;;;5.25;4.50;;;;;4.20;86.56;99857.34;5061471;28;45350;-64
2023/12/04 08:20:52;;;;;;;;;11.50;8.50;;;;;4.27;86.45;99849.63;5063063;28;45449;-62
2023/12/04 08:23:18;;;;;;;;;12.00;9.50;;;;;4.22;86.09;99819.34;5062444;28;45456;-66
2023/12/04 08:25:44;;;;;;;;;11.25;10.00;;;;;4.38;86.12;99835.94;5062333;28;45449;-63
2023/12/04 08:28:09;;;;;;;;;11.00;9.50;;;;;4.42;86.53;99829.97;5056370;28;45535;-64
2023/12/04 08:30:35;;;;;;;;;10.00;8.75;;;;;4.39;86.08;99813.47;5061907;28;45523;-65
2023/12/04 08:33:01;;;;;;;;;14.00;11.00;;;;;4.39;86.33;99811.78;5061441;28;45362;-65
2023/12/04 08:35:26;;;;;;;;;15.50;8.00;;;;;4.50;85.88;99824.84;5062846;28;45318;-64
2023/12/04 08:37:52;;;;;;;;;12.25;9.25;;;;;4.52;86.53;99827.47;5059651;28;45512;-63
2023/12/04 08:40:17;;;;;;;;;11.25;8.75;;;;;4.57;86.11;99820.63;5057624;28;45493;-65
2023/12/04 08:42:44;;;;;;;;;13.50;8.50;;;;;4.56;86.60;99822.34;5059157;28;45386;-65
2023/12/04 08:45:10;;;;;;;;;9.25;8.00;;;;;4.39;86.12;99792.72;5058170;28;45640;-64
2023/12/04 08:47:36;;;;;;;;;13.25;11.25;;;;;4.50;86.50;99796.34;5074143;28;45528;-64
2023/12/04 08:50:01;;;;;;;;;8.50;7.00;;;;;4.57;86.24;99798.13;5059106;28;45468;-65
2023/12/04 08:52:27;;;;;;;;;10.50;8.00;;;;;4.54;86.66;99799.84;5059644;28;45533;-64
2023/12/04 08:54:54;;;;;;;;;11.00;9.00;;;;;4.66;86.03;99800.84;5060260;28;45518;-64
2023/12/04 08:57:23;;;;;;;;;11.25;9.25;;;;;4.47;86.63;99762.59;5059620;28;45470;-64
2023/12/04 08:59:48;;;;;;;;;9.50;8.00;;;;;4.44;86.33;99750.47;5059185;27;45347;-66
2023/12/04 09:02:14;;;;;;;;;9.00;8.50;;;;;4.67;86.57;99775.75;5058742;28;45342;-64
2023/12/04 09:04:40;;;;;;;;;9.50;9.00;;;;;4.74;86.77;99787.09;5058367;28;45583;-64
2023/12/04 09:07:05;;;;;;;;;9.00;9.00;;;;;4.76;86.07;99769.81;5046875;28;45319;-64
2023/12/04 09:09:32;;;;;;;;;10.75;7.75;;;;;4.80;86.74;99769.00;5056245;28;45329;-65
2023/12/04 09:11:58;;;;;;;;;10.00;8.00;;;;;4.76;86.17;99762.88;5058367;28;45438;-64
2023/12/04 09:14:23;;;;;;;;;11.00;8.75;;;;;4.83;86.16;99758.63;5058053;28;45387;-64
2023/12/04 09:16:49;;;;;;;;;8.25;6.00;;;;;4.86;86.20;99756.97;5058262;28;45448;-65
2023/12/04 09:19:14;;;;;;;;;12.75;9.25;;;;;4.89;85.85;99780.34;5058786;28;45567;-65
2023/12/04 09:21:40;;;;;;;;;10.00;9.00;;;;;4.87;86.21;99755.22;5050883;28;45451;-67
2023/12/04 09:24:05;;;;;;;;;7.00;5.75;;;;;4.94;86.26;99767.41;5056370;28;45952;-64
2023/12/04 09:26:31;;;;;;;;;10.25;7.50;;;;;4.94;86.44;99767.41;5054612;28;45410;-64
2023/12/04 09:28:57;;;;;;;;;10.25;8.00;;;;;4.98;86.50;99761.34;5055180;28;45587;-64
2023/12/04 09:31:22;;;;;;;;;7.25;7.25;;;;;4.99;86.91;99752.75;5055885;28;45520;-66
2023/12/04 09:33:48;;;;;;;;;8.50;8.50;;;;;5.01;86.20;99732.88;5057619;28;45554;-65
2023/12/04 09:36:13;;;;;;;;;11.25;7.00;;;;;5.10;85.98;99745.91;5056560;28;45515;-64
2023/12/04 09:38:39;;;;;;;;;8.75;8.75;;;;;5.12;86.36;99724.28;5056428;28;45512;-63
2023/12/04 09:41:17;;;;;;;;;9.75;7.00;;;;;5.06;86.49;99717.34;5056254;28;45602;-65
2023/12/04 09:43:48;;;;;;;;;6.25;4.75;;;;;5.05;86.82;99713.88;5055842;28;45551;-65
2023/12/04 09:46:17;;;;;;;;;9.50;8.00;;;;;5.19;86.74;99728.66;5054704;28;45370;-65
2023/12/04 09:48:44;;;;;;;;;6.25;5.25;;;;;5.21;87.17;99721.75;5054645;28;45426;-66
2023/12/04 09:51:11;;;;;;;;;8.75;8.25;;;;;5.28;86.22;99716.63;5052660;28;45528;-64
2023/12/04 09:53:37;;;;;;;;;8.00;8.00;;;;;5.26;86.48;99704.50;5048585;28;45892;-64
2023/12/04 09:56:11;;;;;;;;;10.50;7.25;;;;;5.37;86.66;99708.03;5052936;28;45509;-63
2023/12/04 09:58:40;;;;;;;;;10.75;9.00;;;;;5.30;86.18;99680.28;5049673;28;45595;-64
2023/12/04 10:01:07;;;;;;;;;8.00;7.00;;;;;5.36;86.63;99685.50;5052326;28;45519;-65
2023/12/04 10:03:34;;;;;;;;;10.00;7.50;;;;;5.42;86.54;99685.56;5048751;28;46515;-66
2023/12/04 10:06:01;;;;;;;;;9.25;8.25;;;;;5.46;86.87;99684.72;5054471;28;45591;-63
2023/12/04 10:08:27;;;;;;;;;8.00;8.00;;;;;5.39;87.34;99669.97;5056279;28;46133;-65
2023/12/04 10:10:53;;;;;;;;;5.25;4.50;;;;;5.44;87.71;99676.06;5054198;28;45424;-63
2023/12/04 10:13:18;;;;;;;;;8.50;7.00;;;;;5.42;88.07;99663.91;5056386;28;46120;-65
2023/12/04 10:15:49;;;;;;;;;8.00;8.00;;;;;5.41;88.14;99656.97;5047745;28;45438;-65
2023/12/04 10:18:26;;;;;;;;;7.75;6.00;;;;;5.34;88.38;99632.72;5044606;28;45774;-63
2023/12/04 10:20:54;;;;;;;;;9.00;7.75;;;;;5.43;88.78;99634.47;5054843;28;45508;-65
2023/12/04 10:23:20;;;;;;;;;12.00;9.00;;;;;5.54;88.40;99645.81;5051677;28;45500;-66
2023/12/04 10:25:45;;;;;;;;;12.00;10.00;;;;;5.56;87.87;99625.91;5044750;28;45500;-65
2023/12/04 10:28:13;;;;;;;;;7.00;6.75;;;;;5.67;88.54;99642.41;5055792;28;45334;-67
2023/12/04 10:30:39;;;;;;;;;8.50;8.00;;;;;5.76;88.20;99627.72;5052805;28;45468;-67
2023/12/04 10:33:07;;;;;;;;;10.00;6.25;;;;;5.83;87.61;99634.66;5053232;28;45489;-63
2023/12/04 10:35:37;;;;;;;;;7.75;7.50;;;;;5.87;87.85;99629.47;5043484;28;45422;-65
2023/12/04 10:38:07;;;;;;;;;11.25;8.50;;;;;6.00;87.37;99638.19;5055137;28;45541;-68
2023/12/04 10:40:40;;;;;;;;;8.50;6.25;;;;;6.06;87.46;99637.38;5052838;28;45620;-65
2023/12/04 10:43:09;;;;;;;;;7.50;7.25;;;;;6.16;86.66;99632.19;5053366;28;45423;-64
2023/12/04 10:45:36;;;;;;;;;9.75;7.75;;;;;6.10;87.19;99610.53;5051680;28;45431;-63
2023/12/04 10:48:10;;;;;;;;;9.75;6.00;;;;;6.07;87.08;99603.56;5050574;28;45571;-67
2023/12/04 10:50:42;;;;;;;;;11.75;9.00;;;;;6.15;87.23;99599.25;5044546;28;46331;-66
2023/12/04 10:53:10;;;;;;;;;13.00;10.00;;;;;6.18;87.20;99580.19;5046780;28;45473;-65
2023/12/04 10:55:36;;;;;;;;;7.25;6.75;;;;;6.35;86.51;99599.28;5039276;28;45312;-63
2023/12/04 10:58:05;;;;;;;;;7.50;6.00;;;;;6.46;85.96;99593.22;5050671;28;45291;-63
2023/12/04 11:00:33;;;;;;;;;14.00;9.00;;;;;6.29;86.07;99555.09;5055211;28;45391;-63
2023/12/04 11:03:07;;;;;;;;;12.00;8.00;;;;;6.59;85.89;99592.34;5057607;28;46139;-65
2023/12/04 11:05:37;;;;;;;;;8.00;7.25;;;;;6.44;85.78;99532.53;5046248;28;45361;-64
2023/12/04 11:08:06;;;;;;;;;12.75;11.00;;;;;6.71;85.02;99547.25;5054043;28;45467;-64
2023/12/04 11:10:35;;;;;;;;;9.75;9.25;;;;;6.87;84.70;99546.34;5045310;28;45416;-64
2023/12/04 11:13:07;;;;;;;;;7.50;5.50;;;;;7.02;84.55;99548.03;5048313;28;47326;-63
2023/12/04 11:15:39;;;;;;;;;9.00;7.00;;;;;6.99;84.65;99538.50;5053265;28;45828;-63
2023/12/04 11:18:10;;;;;;;;;11.00;6.50;;;;;7.05;83.95;99519.41;5043401;28;45593;-63
2023/12/04 11:20:45;;;;;;;;;10.75;10.75;;;;;7.02;83.32;99488.16;5055153;28;45381;-63